sensor_id;sensor_type;location;lat;lon;timestamp;temperature;humidity
40059;SHT31;25763;49.972;8.568;2022-09-09T00:00:56;17.53;74.52
40059;SHT31;25763;49.972;8.568;2022-09-09T00:03:38;17.55;74.74
40059;SHT31;25763;49.972;8.568;2022-09-09T00:11:24;17.49;75.03
40059;SHT31;25763;49.972;8.568;2022-09-09T00:13:53;17.47;74.76
40059;SHT31;25763;49.972;8.568;2022-09-09T00:16:25;17.49;74.99
40059;SHT31;25763;49.972;8.568;2022-09-09T00:19:23;17.44;74.85
40059;SHT31;25763;49.972;8.568;2022-09-09T00:22:19;17.41;75.09
40059;SHT31;25763;49.972;8.568;2022-09-09T00:24:48;17.40;75.19
40059;SHT31;25763;49.972;8.568;2022-09-09T00:27:24;17.41;75.19
40059;SHT31;25763;49.972;8.568;2022-09-09T00:29:56;17.37;75.24
40059;SHT31;25763;49.972;8.568;2022-09-09T00:32:24;17.37;75.36
40059;SHT31;25763;49.972;8.568;2022-09-09T00:34:56;17.41;75.21
40059;SHT31;25763;49.972;8.568;2022-09-09T00:37:24;17.37;75.29
40059;SHT31;25763;49.972;8.568;2022-09-09T00:39:51;17.34;75.41
40059;SHT31;25763;49.972;8.568;2022-09-09T00:42:22;17.34;75.33
40059;SHT31;25763;49.972;8.568;2022-09-09T00:47:52;17.26;75.58
40059;SHT31;25763;49.972;8.568;2022-09-09T00:58:27;17.18;76.05
40059;SHT31;25763;49.972;8.568;2022-09-09T01:01:09;17.16;76.01
40059;SHT31;25763;49.972;8.568;2022-09-09T01:06:25;17.12;76.22
40059;SHT31;25763;49.972;8.568;2022-09-09T01:09:11;17.06;76.48
40059;SHT31;25763;49.972;8.568;2022-09-09T01:17:14;17.04;76.58
40059;SHT31;25763;49.972;8.568;2022-09-09T01:22:39;16.98;76.79
40059;SHT31;25763;49.972;8.568;2022-09-09T01:27:34;16.91;76.95
40059;SHT31;25763;49.972;8.568;2022-09-09T01:30:02;16.88;77.14
40059;SHT31;25763;49.972;8.568;2022-09-09T01:32:39;16.83;77.30
40059;SHT31;25763;49.972;8.568;2022-09-09T01:35:10;16.87;77.25
40059;SHT31;25763;49.972;8.568;2022-09-09T01:37:37;16.81;77.25
40059;SHT31;25763;49.972;8.568;2022-09-09T01:40:03;16.83;77.30
40059;SHT31;25763;49.972;8.568;2022-09-09T01:42:28;16.80;77.44
40059;SHT31;25763;49.972;8.568;2022-09-09T01:44:54;16.83;77.11
40059;SHT31;25763;49.972;8.568;2022-09-09T01:47:20;16.78;77.38
40059;SHT31;25763;49.972;8.568;2022-09-09T01:49:45;16.83;77.33
40059;SHT31;25763;49.972;8.568;2022-09-09T01:52:11;16.81;77.38
40059;SHT31;25763;49.972;8.568;2022-09-09T01:54:36;16.83;77.39
40059;SHT31;25763;49.972;8.568;2022-09-09T01:57:11;16.84;77.43
40059;SHT31;25763;49.972;8.568;2022-09-09T02:00:01;16.81;77.43
40059;SHT31;25763;49.972;8.568;2022-09-09T02:05:38;16.75;77.49
40059;SHT31;25763;49.972;8.568;2022-09-09T02:08:08;16.74;77.54
40059;SHT31;25763;49.972;8.568;2022-09-09T02:13:10;16.70;77.87
40059;SHT31;25763;49.972;8.568;2022-09-09T02:18:07;16.67;77.95
40059;SHT31;25763;49.972;8.568;2022-09-09T02:20:38;16.68;77.98
40059;SHT31;25763;49.972;8.568;2022-09-09T02:23:05;16.70;78.00
40059;SHT31;25763;49.972;8.568;2022-09-09T02:25:33;16.67;78.08
40059;SHT31;25763;49.972;8.568;2022-09-09T02:27:58;16.70;78.06
40059;SHT31;25763;49.972;8.568;2022-09-09T02:30:24;16.71;78.01
40059;SHT31;25763;49.972;8.568;2022-09-09T02:32:54;16.71;78.15
40059;SHT31;25763;49.972;8.568;2022-09-09T02:35:23;16.75;78.06
40059;SHT31;25763;49.972;8.568;2022-09-09T02:37:51;16.77;78.02
40059;SHT31;25763;49.972;8.568;2022-09-09T02:40:18;16.75;78.06
40059;SHT31;25763;49.972;8.568;2022-09-09T02:42:46;16.77;78.15
40059;SHT31;25763;49.972;8.568;2022-09-09T02:45:15;16.77;78.13
40059;SHT31;25763;49.972;8.568;2022-09-09T02:47:53;16.80;78.22
40059;SHT31;25763;49.972;8.568;2022-09-09T02:50:39;16.81;78.09
40059;SHT31;25763;49.972;8.568;2022-09-09T02:53:22;16.83;78.40
40059;SHT31;25763;49.972;8.568;2022-09-09T02:58:21;16.81;78.14
40059;SHT31;25763;49.972;8.568;2022-09-09T03:00:49;16.83;78.31
40059;SHT31;25763;49.972;8.568;2022-09-09T03:03:15;16.80;78.11
40059;SHT31;25763;49.972;8.568;2022-09-09T03:05:45;16.85;78.27
40059;SHT31;25763;49.972;8.568;2022-09-09T03:08:11;16.85;78.19
40059;SHT31;25763;49.972;8.568;2022-09-09T03:10:38;16.87;78.23
40059;SHT31;25763;49.972;8.568;2022-09-09T03:13:04;16.88;78.01
40059;SHT31;25763;49.972;8.568;2022-09-09T03:15:33;16.88;78.06
40059;SHT31;25763;49.972;8.568;2022-09-09T03:17:59;16.88;77.77
40059;SHT31;25763;49.972;8.568;2022-09-09T03:20:26;16.87;78.00
40059;SHT31;25763;49.972;8.568;2022-09-09T03:22:53;16.90;78.03
40059;SHT31;25763;49.972;8.568;2022-09-09T03:25:19;16.88;77.81
40059;SHT31;25763;49.972;8.568;2022-09-09T03:27:44;16.85;77.83
40059;SHT31;25763;49.972;8.568;2022-09-09T03:30:10;16.83;78.17
40059;SHT31;25763;49.972;8.568;2022-09-09T03:32:36;16.84;78.17
40059;SHT31;25763;49.972;8.568;2022-09-09T03:35:02;16.83;78.14
40059;SHT31;25763;49.972;8.568;2022-09-09T03:37:27;16.84;78.11
40059;SHT31;25763;49.972;8.568;2022-09-09T03:39:52;16.87;78.36
40059;SHT31;25763;49.972;8.568;2022-09-09T03:42:19;16.84;78.44
40059;SHT31;25763;49.972;8.568;2022-09-09T03:44:46;16.81;78.34
40059;SHT31;25763;49.972;8.568;2022-09-09T03:47:16;16.81;78.27
40059;SHT31;25763;49.972;8.568;2022-09-09T03:49:42;16.84;78.18
40059;SHT31;25763;49.972;8.568;2022-09-09T03:52:08;16.84;78.47
40059;SHT31;25763;49.972;8.568;2022-09-09T03:54:34;16.85;78.29
40059;SHT31;25763;49.972;8.568;2022-09-09T03:57:00;16.84;78.34
40059;SHT31;25763;49.972;8.568;2022-09-09T03:59:25;16.87;78.39
40059;SHT31;25763;49.972;8.568;2022-09-09T04:01:50;16.83;78.43
40059;SHT31;25763;49.972;8.568;2022-09-09T04:04:16;16.80;78.37
40059;SHT31;25763;49.972;8.568;2022-09-09T04:06:41;16.78;78.48
40059;SHT31;25763;49.972;8.568;2022-09-09T04:09:07;16.77;78.66
40059;SHT31;25763;49.972;8.568;2022-09-09T04:11:32;16.75;78.60
40059;SHT31;25763;49.972;8.568;2022-09-09T04:13:58;16.74;78.67
40059;SHT31;25763;49.972;8.568;2022-09-09T04:16:24;16.70;78.83
40059;SHT31;25763;49.972;8.568;2022-09-09T04:18:49;16.68;78.85
40059;SHT31;25763;49.972;8.568;2022-09-09T04:21:14;16.65;79.01
40059;SHT31;25763;49.972;8.568;2022-09-09T04:23:41;16.65;79.59
40059;SHT31;25763;49.972;8.568;2022-09-09T04:26:07;16.67;79.87
40059;SHT31;25763;49.972;8.568;2022-09-09T04:28:34;16.64;80.06
40059;SHT31;25763;49.972;8.568;2022-09-09T04:31:05;16.64;80.05
40059;SHT31;25763;49.972;8.568;2022-09-09T04:33:31;16.63;80.03
40059;SHT31;25763;49.972;8.568;2022-09-09T04:35:56;16.64;80.11
40059;SHT31;25763;49.972;8.568;2022-09-09T04:38:22;16.68;80.12
40059;SHT31;25763;49.972;8.568;2022-09-09T04:40:49;16.67;80.21
40059;SHT31;25763;49.972;8.568;2022-09-09T04:43:15;16.64;79.79
40059;SHT31;25763;49.972;8.568;2022-09-09T04:45:41;16.67;80.03
40059;SHT31;25763;49.972;8.568;2022-09-09T04:48:07;16.63;80.14
40059;SHT31;25763;49.972;8.568;2022-09-09T04:50:33;16.64;80.09
40059;SHT31;25763;49.972;8.568;2022-09-09T04:53:03;16.60;80.03
40059;SHT31;25763;49.972;8.568;2022-09-09T04:55:30;16.60;80.07
40059;SHT31;25763;49.972;8.568;2022-09-09T04:57:55;16.64;79.91
40059;SHT31;25763;49.972;8.568;2022-09-09T05:00:21;16.56;80.00
40059;SHT31;25763;49.972;8.568;2022-09-09T05:02:47;16.56;79.96
40059;SHT31;25763;49.972;8.568;2022-09-09T05:05:13;16.55;80.25
40059;SHT31;25763;49.972;8.568;2022-09-09T05:07:38;16.49;80.23
40059;SHT31;25763;49.972;8.568;2022-09-09T05:10:04;16.47;80.42
40059;SHT31;25763;49.972;8.568;2022-09-09T05:12:30;16.40;80.63
40059;SHT31;25763;49.972;8.568;2022-09-09T05:14:56;16.40;80.57
40059;SHT31;25763;49.972;8.568;2022-09-09T05:17:22;16.38;80.70
40059;SHT31;25763;49.972;8.568;2022-09-09T05:19:47;16.39;80.65
40059;SHT31;25763;49.972;8.568;2022-09-09T05:22:12;16.40;80.74
40059;SHT31;25763;49.972;8.568;2022-09-09T05:24:38;16.42;80.78
40059;SHT31;25763;49.972;8.568;2022-09-09T05:27:04;16.43;80.78
40059;SHT31;25763;49.972;8.568;2022-09-09T05:29:30;16.46;80.81
40059;SHT31;25763;49.972;8.568;2022-09-09T05:31:58;16.49;80.64
40059;SHT31;25763;49.972;8.568;2022-09-09T05:34:24;16.49;80.76
40059;SHT31;25763;49.972;8.568;2022-09-09T05:36:49;16.45;80.78
40059;SHT31;25763;49.972;8.568;2022-09-09T05:39:14;16.42;80.87
40059;SHT31;25763;49.972;8.568;2022-09-09T05:41:40;16.46;80.89
40059;SHT31;25763;49.972;8.568;2022-09-09T05:44:05;16.42;80.81
40059;SHT31;25763;49.972;8.568;2022-09-09T05:46:31;16.43;80.73
40059;SHT31;25763;49.972;8.568;2022-09-09T05:48:56;16.50;80.69
40059;SHT31;25763;49.972;8.568;2022-09-09T05:51:27;16.47;80.69
40059;SHT31;25763;49.972;8.568;2022-09-09T05:53:55;16.49;80.55
40059;SHT31;25763;49.972;8.568;2022-09-09T05:56:25;16.52;80.42
40059;SHT31;25763;49.972;8.568;2022-09-09T05:58:51;16.47;80.50
40059;SHT31;25763;49.972;8.568;2022-09-09T06:01:20;16.52;80.38
40059;SHT31;25763;49.972;8.568;2022-09-09T06:03:47;16.55;80.34
40059;SHT31;25763;49.972;8.568;2022-09-09T06:06:15;16.57;80.33
40059;SHT31;25763;49.972;8.568;2022-09-09T06:08:42;16.56;80.19
40059;SHT31;25763;49.972;8.568;2022-09-09T06:11:22;16.59;80.29
40059;SHT31;25763;49.972;8.568;2022-09-09T06:13:49;16.67;80.15
40059;SHT31;25763;49.972;8.568;2022-09-09T06:16:20;16.77;79.95
40059;SHT31;25763;49.972;8.568;2022-09-09T06:18:45;16.78;79.73
40059;SHT31;25763;49.972;8.568;2022-09-09T06:21:22;16.85;79.68
40059;SHT31;25763;49.972;8.568;2022-09-09T06:23:48;16.87;79.94
40059;SHT31;25763;49.972;8.568;2022-09-09T06:26:17;16.94;79.62
40059;SHT31;25763;49.972;8.568;2022-09-09T06:28:44;17.01;79.70
40059;SHT31;25763;49.972;8.568;2022-09-09T06:31:12;17.08;79.34
40059;SHT31;25763;49.972;8.568;2022-09-09T06:33:40;17.12;79.16
40059;SHT31;25763;49.972;8.568;2022-09-09T06:36:15;17.08;79.21
40059;SHT31;25763;49.972;8.568;2022-09-09T06:38:41;17.18;79.21
40059;SHT31;25763;49.972;8.568;2022-09-09T06:41:11;17.18;78.91
40059;SHT31;25763;49.972;8.568;2022-09-09T06:43:37;17.20;78.50
40059;SHT31;25763;49.972;8.568;2022-09-09T06:46:10;17.29;78.41
40059;SHT31;25763;49.972;8.568;2022-09-09T06:48:36;17.36;78.43
40059;SHT31;25763;49.972;8.568;2022-09-09T06:53:32;17.61;78.53
40059;SHT31;25763;49.972;8.568;2022-09-09T06:56:02;17.60;77.94
40059;SHT31;25763;49.972;8.568;2022-09-09T06:58:42;17.58;77.59
40059;SHT31;25763;49.972;8.568;2022-09-09T07:01:16;17.67;78.04
40059;SHT31;25763;49.972;8.568;2022-09-09T07:03:42;17.68;77.80
40059;SHT31;25763;49.972;8.568;2022-09-09T07:06:14;17.63;77.55
40059;SHT31;25763;49.972;8.568;2022-09-09T07:08:42;17.67;77.78
40059;SHT31;25763;49.972;8.568;2022-09-09T07:11:08;17.55;77.96
40059;SHT31;25763;49.972;8.568;2022-09-09T07:13:34;17.49;78.01
40059;SHT31;25763;49.972;8.568;2022-09-09T07:16:08;17.47;78.34
40059;SHT31;25763;49.972;8.568;2022-09-09T07:18:35;17.53;78.09
40059;SHT31;25763;49.972;8.568;2022-09-09T07:21:01;17.51;78.14
40059;SHT31;25763;49.972;8.568;2022-09-09T07:23:27;17.49;78.01
40059;SHT31;25763;49.972;8.568;2022-09-09T07:25:53;17.54;78.13
40059;SHT31;25763;49.972;8.568;2022-09-09T07:28:21;17.53;77.92
40059;SHT31;25763;49.972;8.568;2022-09-09T07:30:58;17.61;78.03
40059;SHT31;25763;49.972;8.568;2022-09-09T07:33:24;17.70;78.26
40059;SHT31;25763;49.972;8.568;2022-09-09T07:35:50;17.75;77.55
40059;SHT31;25763;49.972;8.568;2022-09-09T07:38:16;17.75;77.56
40059;SHT31;25763;49.972;8.568;2022-09-09T07:40:41;17.84;77.46
40059;SHT31;25763;49.972;8.568;2022-09-09T07:43:06;17.85;77.67
40059;SHT31;25763;49.972;8.568;2022-09-09T07:45:33;17.93;77.41
40059;SHT31;25763;49.972;8.568;2022-09-09T07:47:59;17.95;77.20
40059;SHT31;25763;49.972;8.568;2022-09-09T07:50:25;17.93;77.03
40059;SHT31;25763;49.972;8.568;2022-09-09T07:52:51;17.93;76.96
40059;SHT31;25763;49.972;8.568;2022-09-09T07:55:22;18.00;76.90
40059;SHT31;25763;49.972;8.568;2022-09-09T07:57:51;18.06;76.68
40059;SHT31;25763;49.972;8.568;2022-09-09T08:00:17;18.12;76.75
40059;SHT31;25763;49.972;8.568;2022-09-09T08:02:43;18.23;76.98
40059;SHT31;25763;49.972;8.568;2022-09-09T08:05:09;18.30;76.26
40059;SHT31;25763;49.972;8.568;2022-09-09T08:07:34;18.47;76.54
40059;SHT31;25763;49.972;8.568;2022-09-09T08:10:00;18.51;75.33
40059;SHT31;25763;49.972;8.568;2022-09-09T08:12:25;18.50;75.24
40059;SHT31;25763;49.972;8.568;2022-09-09T08:14:50;18.55;75.67
40059;SHT31;25763;49.972;8.568;2022-09-09T08:17:17;18.61;75.52
40059;SHT31;25763;49.972;8.568;2022-09-09T08:19:42;18.62;75.52
40059;SHT31;25763;49.972;8.568;2022-09-09T08:22:07;18.72;74.49
40059;SHT31;25763;49.972;8.568;2022-09-09T08:24:33;18.85;74.81
40059;SHT31;25763;49.972;8.568;2022-09-09T08:26:59;18.87;74.06
40059;SHT31;25763;49.972;8.568;2022-09-09T08:29:24;18.99;74.18
40059;SHT31;25763;49.972;8.568;2022-09-09T08:31:53;18.96;73.57
40059;SHT31;25763;49.972;8.568;2022-09-09T08:34:25;19.00;73.39
40059;SHT31;25763;49.972;8.568;2022-09-09T08:36:52;18.87;73.66
40059;SHT31;25763;49.972;8.568;2022-09-09T08:39:20;18.93;73.61
40059;SHT31;25763;49.972;8.568;2022-09-09T08:47:46;19.17;73.48
40059;SHT31;25763;49.972;8.568;2022-09-09T08:50:19;19.26;73.22
40059;SHT31;25763;49.972;8.568;2022-09-09T08:53:00;19.20;72.41
40059;SHT31;25763;49.972;8.568;2022-09-09T08:57:57;19.17;72.87
40059;SHT31;25763;49.972;8.568;2022-09-09T09:00:57;19.24;72.65
40059;SHT31;25763;49.972;8.568;2022-09-09T09:11:55;19.84;70.06
40059;SHT31;25763;49.972;8.568;2022-09-09T09:14:31;19.76;70.82
40059;SHT31;25763;49.972;8.568;2022-09-09T09:17:12;19.59;70.32
40059;SHT31;25763;49.972;8.568;2022-09-09T09:19:40;19.45;70.70
40059;SHT31;25763;49.972;8.568;2022-09-09T09:22:17;19.56;71.13
40059;SHT31;25763;49.972;8.568;2022-09-09T09:25:02;19.66;70.51
40059;SHT31;25763;49.972;8.568;2022-09-09T09:27:34;19.67;70.51
40059;SHT31;25763;49.972;8.568;2022-09-09T09:30:15;19.72;70.11
40059;SHT31;25763;49.972;8.568;2022-09-09T09:32:53;19.79;70.35
40059;SHT31;25763;49.972;8.568;2022-09-09T09:35:19;19.80;70.22
40059;SHT31;25763;49.972;8.568;2022-09-09T09:37:45;19.73;70.82
40059;SHT31;25763;49.972;8.568;2022-09-09T09:40:12;19.77;70.87
40059;SHT31;25763;49.972;8.568;2022-09-09T09:42:53;19.83;71.30
40059;SHT31;25763;49.972;8.568;2022-09-09T09:45:42;19.87;71.70
40059;SHT31;25763;49.972;8.568;2022-09-09T09:48:12;20.12;70.84
40059;SHT31;25763;49.972;8.568;2022-09-09T09:50:49;20.20;70.85
40059;SHT31;25763;49.972;8.568;2022-09-09T09:56:00;20.01;70.00
40059;SHT31;25763;49.972;8.568;2022-09-09T09:58:33;19.96;69.89
40059;SHT31;25763;49.972;8.568;2022-09-09T10:01:03;19.97;70.68
40059;SHT31;25763;49.972;8.568;2022-09-09T10:03:31;20.04;70.22
40059;SHT31;25763;49.972;8.568;2022-09-09T10:05:57;19.97;70.35
40059;SHT31;25763;49.972;8.568;2022-09-09T10:08:24;19.96;70.70
40059;SHT31;25763;49.972;8.568;2022-09-09T10:13:55;19.83;70.57
40059;SHT31;25763;49.972;8.568;2022-09-09T10:16:45;19.74;69.73
40059;SHT31;25763;49.972;8.568;2022-09-09T10:19:32;19.79;70.17
40059;SHT31;25763;49.972;8.568;2022-09-09T10:24:40;20.29;70.58
40059;SHT31;25763;49.972;8.568;2022-09-09T10:32:44;20.90;67.04
40059;SHT31;25763;49.972;8.568;2022-09-09T10:57:08;20.99;62.85
40059;SHT31;25763;49.972;8.568;2022-09-09T10:59:44;21.15;64.20
40059;SHT31;25763;49.972;8.568;2022-09-09T11:02:24;21.23;62.41
40059;SHT31;25763;49.972;8.568;2022-09-09T11:04:56;21.15;61.07
40059;SHT31;25763;49.972;8.568;2022-09-09T11:07:36;21.08;61.34
40059;SHT31;25763;49.972;8.568;2022-09-09T11:10:12;21.05;61.23
40059;SHT31;25763;49.972;8.568;2022-09-09T11:12:43;21.12;61.75
40059;SHT31;25763;49.972;8.568;2022-09-09T11:15:35;21.18;62.37
40059;SHT31;25763;49.972;8.568;2022-09-09T11:18:04;21.15;60.21
40059;SHT31;25763;49.972;8.568;2022-09-09T11:20:30;21.24;59.65
40059;SHT31;25763;49.972;8.568;2022-09-09T11:23:03;21.50;60.29
40059;SHT31;25763;49.972;8.568;2022-09-09T11:25:36;21.51;59.04
40059;SHT31;25763;49.972;8.568;2022-09-09T11:28:40;21.43;59.40
40059;SHT31;25763;49.972;8.568;2022-09-09T11:34:32;22.04;58.62
40059;SHT31;25763;49.972;8.568;2022-09-09T11:37:03;22.04;56.90
40059;SHT31;25763;49.972;8.568;2022-09-09T11:40:04;21.92;57.76
40059;SHT31;25763;49.972;8.568;2022-09-09T11:42:33;22.29;57.97
40059;SHT31;25763;49.972;8.568;2022-09-09T11:45:09;22.53;58.33
40059;SHT31;25763;49.972;8.568;2022-09-09T11:47:36;22.41;58.21
40059;SHT31;25763;49.972;8.568;2022-09-09T11:50:26;22.17;57.85
40059;SHT31;25763;49.972;8.568;2022-09-09T11:53:05;21.98;57.04
40059;SHT31;25763;49.972;8.568;2022-09-09T11:55:32;21.98;58.97
40059;SHT31;25763;49.972;8.568;2022-09-09T11:58:06;21.92;58.21
40059;SHT31;25763;49.972;8.568;2022-09-09T12:00:45;21.81;58.81
40059;SHT31;25763;49.972;8.568;2022-09-09T12:03:40;21.74;58.30
40059;SHT31;25763;49.972;8.568;2022-09-09T12:06:25;21.64;58.81
40059;SHT31;25763;49.972;8.568;2022-09-09T12:08:55;21.60;59.05
40059;SHT31;25763;49.972;8.568;2022-09-09T12:11:26;21.46;58.87
40059;SHT31;25763;49.972;8.568;2022-09-09T12:13:57;21.45;59.09
40059;SHT31;25763;49.972;8.568;2022-09-09T12:16:35;21.40;60.87
40059;SHT31;25763;49.972;8.568;2022-09-09T12:19:13;21.29;63.37
40059;SHT31;25763;49.972;8.568;2022-09-09T12:22:00;20.99;68.09
40059;SHT31;25763;49.972;8.568;2022-09-09T12:24:43;20.71;68.80
40059;SHT31;25763;49.972;8.568;2022-09-09T12:27:34;20.67;70.11
40059;SHT31;25763;49.972;8.568;2022-09-09T12:30:10;20.61;71.30
40059;SHT31;25763;49.972;8.568;2022-09-09T12:32:36;20.56;72.31
40059;SHT31;25763;49.972;8.568;2022-09-09T12:35:17;20.47;70.40
40059;SHT31;25763;49.972;8.568;2022-09-09T12:38:11;20.40;70.53
40059;SHT31;25763;49.972;8.568;2022-09-09T12:40:36;20.31;67.77
40059;SHT31;25763;49.972;8.568;2022-09-09T12:43:17;20.29;67.32
40059;SHT31;25763;49.972;8.568;2022-09-09T12:45:43;20.31;65.78
40059;SHT31;25763;49.972;8.568;2022-09-09T12:48:10;20.22;64.08
40059;SHT31;25763;49.972;8.568;2022-09-09T12:50:44;20.25;64.64
40059;SHT31;25763;49.972;8.568;2022-09-09T12:53:32;20.32;64.77
40059;SHT31;25763;49.972;8.568;2022-09-09T12:56:07;20.07;61.29
40059;SHT31;25763;49.972;8.568;2022-09-09T12:58:35;19.70;61.42
40059;SHT31;25763;49.972;8.568;2022-09-09T13:01:03;19.59;62.46
40059;SHT31;25763;49.972;8.568;2022-09-09T13:03:30;19.37;62.29
40059;SHT31;25763;49.972;8.568;2022-09-09T13:06:11;19.17;62.06
40059;SHT31;25763;49.972;8.568;2022-09-09T13:08:37;19.10;62.78
40059;SHT31;25763;49.972;8.568;2022-09-09T13:11:07;19.00;63.27
40059;SHT31;25763;49.972;8.568;2022-09-09T13:13:40;18.97;64.84
40059;SHT31;25763;49.972;8.568;2022-09-09T13:16:19;18.93;64.89
40059;SHT31;25763;49.972;8.568;2022-09-09T13:18:45;18.94;65.69
40059;SHT31;25763;49.972;8.568;2022-09-09T13:21:11;18.93;65.17
40059;SHT31;25763;49.972;8.568;2022-09-09T13:23:38;19.03;65.99
40059;SHT31;25763;49.972;8.568;2022-09-09T13:26:06;19.04;66.08
40059;SHT31;25763;49.972;8.568;2022-09-09T13:28:43;19.04;65.06
40059;SHT31;25763;49.972;8.568;2022-09-09T13:31:28;19.00;65.64
40059;SHT31;25763;49.972;8.568;2022-09-09T13:33:54;19.04;66.30
40059;SHT31;25763;49.972;8.568;2022-09-09T13:36:34;19.20;66.10
40059;SHT31;25763;49.972;8.568;2022-09-09T13:39:01;19.30;66.39
40059;SHT31;25763;49.972;8.568;2022-09-09T13:41:34;19.62;66.56
40059;SHT31;25763;49.972;8.568;2022-09-09T13:44:02;19.88;64.52
40059;SHT31;25763;49.972;8.568;2022-09-09T13:46:37;20.04;66.18
40059;SHT31;25763;49.972;8.568;2022-09-09T13:51:45;20.31;64.01
40059;SHT31;25763;49.972;8.568;2022-09-09T13:54:13;20.35;63.32
40059;SHT31;25763;49.972;8.568;2022-09-09T13:56:40;20.46;64.59
40059;SHT31;25763;49.972;8.568;2022-09-09T13:59:11;20.33;65.35
40059;SHT31;25763;49.972;8.568;2022-09-09T14:01:37;20.24;63.66
40059;SHT31;25763;49.972;8.568;2022-09-09T14:04:03;20.11;65.36
40059;SHT31;25763;49.972;8.568;2022-09-09T14:06:30;20.00;65.31
40059;SHT31;25763;49.972;8.568;2022-09-09T14:08:57;19.97;65.10
40059;SHT31;25763;49.972;8.568;2022-09-09T14:11:22;19.83;64.81
40059;SHT31;25763;49.972;8.568;2022-09-09T14:13:48;19.93;64.93
40059;SHT31;25763;49.972;8.568;2022-09-09T14:16:16;19.90;64.75
40059;SHT31;25763;49.972;8.568;2022-09-09T14:18:43;19.81;63.71
40059;SHT31;25763;49.972;8.568;2022-09-09T14:21:09;19.80;63.61
40059;SHT31;25763;49.972;8.568;2022-09-09T14:23:34;19.86;63.96
40059;SHT31;25763;49.972;8.568;2022-09-09T14:26:00;19.93;63.71
40059;SHT31;25763;49.972;8.568;2022-09-09T14:28:25;19.87;63.56
40059;SHT31;25763;49.972;8.568;2022-09-09T14:30:50;19.83;62.57
40059;SHT31;25763;49.972;8.568;2022-09-09T14:33:16;19.87;64.18
40059;SHT31;25763;49.972;8.568;2022-09-09T14:35:42;19.83;62.05
40059;SHT31;25763;49.972;8.568;2022-09-09T14:38:09;19.70;62.74
40059;SHT31;25763;49.972;8.568;2022-09-09T14:40:36;19.72;63.12
40059;SHT31;25763;49.972;8.568;2022-09-09T14:43:02;19.77;63.93
40059;SHT31;25763;49.972;8.568;2022-09-09T14:45:27;19.63;63.65
40059;SHT31;25763;49.972;8.568;2022-09-09T14:47:53;19.55;64.29
40059;SHT31;25763;49.972;8.568;2022-09-09T14:50:19;19.66;64.68
40059;SHT31;25763;49.972;8.568;2022-09-09T14:52:45;19.67;64.62
40059;SHT31;25763;49.972;8.568;2022-09-09T14:55:11;19.66;64.87
40059;SHT31;25763;49.972;8.568;2022-09-09T14:57:37;19.61;64.60
40059;SHT31;25763;49.972;8.568;2022-09-09T15:00:04;19.63;65.15
40059;SHT31;25763;49.972;8.568;2022-09-09T15:02:30;19.65;66.38
40059;SHT31;25763;49.972;8.568;2022-09-09T15:04:56;19.65;66.74
40059;SHT31;25763;49.972;8.568;2022-09-09T15:07:25;19.66;67.87
40059;SHT31;25763;49.972;8.568;2022-09-09T15:09:51;19.73;68.36
40059;SHT31;25763;49.972;8.568;2022-09-09T15:12:18;19.80;69.30
40059;SHT31;25763;49.972;8.568;2022-09-09T15:14:44;19.84;69.31
40059;SHT31;25763;49.972;8.568;2022-09-09T15:17:10;19.91;69.03
40059;SHT31;25763;49.972;8.568;2022-09-09T15:19:36;19.96;69.50
40059;SHT31;25763;49.972;8.568;2022-09-09T15:22:02;20.00;69.47
40059;SHT31;25763;49.972;8.568;2022-09-09T15:24:28;20.07;69.67
40059;SHT31;25763;49.972;8.568;2022-09-09T15:26:53;19.98;69.13
40059;SHT31;25763;49.972;8.568;2022-09-09T15:29:19;20.03;69.11
40059;SHT31;25763;49.972;8.568;2022-09-09T15:31:44;20.04;69.56
40059;SHT31;25763;49.972;8.568;2022-09-09T15:34:10;19.94;68.73
40059;SHT31;25763;49.972;8.568;2022-09-09T15:36:39;19.91;68.86
40059;SHT31;25763;49.972;8.568;2022-09-09T15:39:07;19.84;68.97
40059;SHT31;25763;49.972;8.568;2022-09-09T15:41:32;19.83;68.58
40059;SHT31;25763;49.972;8.568;2022-09-09T15:43:59;19.86;68.61
40059;SHT31;25763;49.972;8.568;2022-09-09T15:46:46;19.87;68.91
40059;SHT31;25763;49.972;8.568;2022-09-09T15:49:17;19.84;68.71
40059;SHT31;25763;49.972;8.568;2022-09-09T15:51:45;19.79;68.65
40059;SHT31;25763;49.972;8.568;2022-09-09T15:54:16;19.81;68.86
40059;SHT31;25763;49.972;8.568;2022-09-09T15:56:43;19.86;68.95
40059;SHT31;25763;49.972;8.568;2022-09-09T15:59:09;19.87;69.04
40059;SHT31;25763;49.972;8.568;2022-09-09T16:01:36;19.83;69.40
40059;SHT31;25763;49.972;8.568;2022-09-09T16:04:01;19.77;69.65
40059;SHT31;25763;49.972;8.568;2022-09-09T16:06:28;19.77;70.03
40059;SHT31;25763;49.972;8.568;2022-09-09T16:08:55;19.76;70.74
40059;SHT31;25763;49.972;8.568;2022-09-09T16:11:22;19.74;69.29
40059;SHT31;25763;49.972;8.568;2022-09-09T16:13:50;19.73;69.54
40059;SHT31;25763;49.972;8.568;2022-09-09T16:16:17;19.69;69.32
40059;SHT31;25763;49.972;8.568;2022-09-09T16:18:53;19.62;70.66
40059;SHT31;25763;49.972;8.568;2022-09-09T16:21:42;19.66;71.13
40059;SHT31;25763;49.972;8.568;2022-09-09T16:24:10;19.66;71.47
40059;SHT31;25763;49.972;8.568;2022-09-09T16:26:38;19.65;71.77
40059;SHT31;25763;49.972;8.568;2022-09-09T16:29:04;19.63;72.24
40059;SHT31;25763;49.972;8.568;2022-09-09T16:31:30;19.56;72.25
40059;SHT31;25763;49.972;8.568;2022-09-09T16:33:57;19.53;72.45
40059;SHT31;25763;49.972;8.568;2022-09-09T16:36:25;19.49;72.65
40059;SHT31;25763;49.972;8.568;2022-09-09T16:38:55;19.49;72.77
40059;SHT31;25763;49.972;8.568;2022-09-09T16:41:22;19.49;72.87
40059;SHT31;25763;49.972;8.568;2022-09-09T16:43:47;19.45;73.26
40059;SHT31;25763;49.972;8.568;2022-09-09T16:46:18;19.42;73.38
40059;SHT31;25763;49.972;8.568;2022-09-09T16:48:44;19.44;73.38
40059;SHT31;25763;49.972;8.568;2022-09-09T16:51:31;19.28;72.78
40059;SHT31;25763;49.972;8.568;2022-09-09T16:53:59;19.28;72.57
40059;SHT31;25763;49.972;8.568;2022-09-09T16:56:28;19.24;72.38
40059;SHT31;25763;49.972;8.568;2022-09-09T16:58:59;19.14;72.21
40059;SHT31;25763;49.972;8.568;2022-09-09T17:01:28;19.07;72.54
40059;SHT31;25763;49.972;8.568;2022-09-09T17:03:55;19.08;72.69
40059;SHT31;25763;49.972;8.568;2022-09-09T17:06:21;19.10;72.75
40059;SHT31;25763;49.972;8.568;2022-09-09T17:08:46;19.06;72.62
40059;SHT31;25763;49.972;8.568;2022-09-09T17:11:18;19.08;72.75
40059;SHT31;25763;49.972;8.568;2022-09-09T17:13:45;19.02;72.72
40059;SHT31;25763;49.972;8.568;2022-09-09T17:16:12;19.04;72.56
40059;SHT31;25763;49.972;8.568;2022-09-09T17:18:38;19.02;72.43
40059;SHT31;25763;49.972;8.568;2022-09-09T17:21:06;19.02;72.37
40059;SHT31;25763;49.972;8.568;2022-09-09T17:23:34;19.04;72.02
40059;SHT31;25763;49.972;8.568;2022-09-09T17:26:04;19.02;72.32
40059;SHT31;25763;49.972;8.568;2022-09-09T17:28:30;18.97;72.02